sensor_id;sensor_type;location;lat;lon;timestamp;P1;durP1;ratioP1;P2;durP2;ratioP2
10410;SDS011;5251;52.112;8.606;2023-12-20T00:00:58;6.32;;;4.40;;
10410;SDS011;5251;52.112;8.606;2023-12-20T00:03:23;6.55;;;3.78;;
10410;SDS011;5251;52.112;8.606;2023-12-20T00:05:49;4.80;;;3.80;;
10410;SDS011;5251;52.112;8.606;2023-12-20T00:08:15;6.90;;;4.53;;
10410;SDS011;5251;52.112;8.606;2023-12-20T00:10:41;5.68;;;3.60;;
10410;SDS011;5251;52.112;8.606;2023-12-20T00:13:08;4.07;;;3.35;;
10410;SDS011;5251;52.112;8.606;2023-12-20T00:15:34;7.53;;;3.50;;
10410;SDS011;5251;52.112;8.606;2023-12-20T00:17:59;6.75;;;3.88;;
10410;SDS011;5251;52.112;8.606;2023-12-20T00:20:26;5.78;;;3.92;;
10410;SDS011;5251;52.112;8.606;2023-12-20T00:22:54;5.80;;;3.80;;
10410;SDS011;5251;52.112;8.606;2023-12-20T00:25:21;6.43;;;4.13;;
10410;SDS011;5251;52.112;8.606;2023-12-20T00:27:46;5.38;;;3.90;;
10410;SDS011;5251;52.112;8.606;2023-12-20T00:30:12;6.00;;;3.83;;
10410;SDS011;5251;52.112;8.606;2023-12-20T00:32:38;5.53;;;3.70;;
10410;SDS011;5251;52.112;8.606;2023-12-20T00:35:03;6.32;;;3.60;;
10410;SDS011;5251;52.112;8.606;2023-12-20T00:37:29;4.00;;;2.97;;
10410;SDS011;5251;52.112;8.606;2023-12-20T00:39:55;5.15;;;2.90;;
10410;SDS011;5251;52.112;8.606;2023-12-20T00:42:20;5.68;;;2.42;;
10410;SDS011;5251;52.112;8.606;2023-12-20T00:44:46;5.40;;;2.40;;
10410;SDS011;5251;52.112;8.606;2023-12-20T00:47:11;6.10;;;2.35;;
10410;SDS011;5251;52.112;8.606;2023-12-20T00:49:38;4.82;;;2.03;;
10410;SDS011;5251;52.112;8.606;2023-12-20T00:52:04;4.88;;;2.45;;
10410;SDS011;5251;52.112;8.606;2023-12-20T00:54:30;4.55;;;1.80;;
10410;SDS011;5251;52.112;8.606;2023-12-20T00:56:56;7.25;;;2.17;;
10410;SDS011;5251;52.112;8.606;2023-12-20T00:59:21;5.55;;;2.15;;
10410;SDS011;5251;52.112;8.606;2023-12-20T01:01:47;4.43;;;2.05;;
10410;SDS011;5251;52.112;8.606;2023-12-20T01:04:12;2.75;;;1.98;;
10410;SDS011;5251;52.112;8.606;2023-12-20T01:06:38;6.95;;;2.10;;
10410;SDS011;5251;52.112;8.606;2023-12-20T01:09:03;5.03;;;2.10;;
10410;SDS011;5251;52.112;8.606;2023-12-20T01:11:29;6.00;;;1.80;;
10410;SDS011;5251;52.112;8.606;2023-12-20T01:13:55;7.60;;;2.05;;
10410;SDS011;5251;52.112;8.606;2023-12-20T01:16:20;8.35;;;2.03;;
10410;SDS011;5251;52.112;8.606;2023-12-20T01:18:46;5.03;;;1.65;;
10410;SDS011;5251;52.112;8.606;2023-12-20T01:21:12;3.80;;;1.58;;
10410;SDS011;5251;52.112;8.606;2023-12-20T01:23:37;4.78;;;1.90;;
10410;SDS011;5251;52.112;8.606;2023-12-20T01:26:03;5.78;;;1.88;;
10410;SDS011;5251;52.112;8.606;2023-12-20T01:28:30;8.00;;;1.85;;
10410;SDS011;5251;52.112;8.606;2023-12-20T01:30:56;6.75;;;1.95;;
10410;SDS011;5251;52.112;8.606;2023-12-20T01:33:22;6.65;;;2.03;;
10410;SDS011;5251;52.112;8.606;2023-12-20T01:35:48;5.45;;;2.05;;
10410;SDS011;5251;52.112;8.606;2023-12-20T01:38:14;5.03;;;1.73;;
10410;SDS011;5251;52.112;8.606;2023-12-20T01:40:39;3.03;;;1.60;;
10410;SDS011;5251;52.112;8.606;2023-12-20T01:43:07;4.45;;;1.83;;
10410;SDS011;5251;52.112;8.606;2023-12-20T01:45:35;4.85;;;1.70;;
10410;SDS011;5251;52.112;8.606;2023-12-20T01:48:01;7.20;;;2.17;;
10410;SDS011;5251;52.112;8.606;2023-12-20T01:50:28;3.60;;;1.65;;
10410;SDS011;5251;52.112;8.606;2023-12-20T01:52:55;6.00;;;1.63;;
10410;SDS011;5251;52.112;8.606;2023-12-20T01:55:23;3.53;;;1.50;;
10410;SDS011;5251;52.112;8.606;2023-12-20T01:57:49;5.53;;;2.35;;
10410;SDS011;5251;52.112;8.606;2023-12-20T02:00:16;7.03;;;2.65;;
10410;SDS011;5251;52.112;8.606;2023-12-20T02:02:43;4.95;;;1.77;;
10410;SDS011;5251;52.112;8.606;2023-12-20T02:05:10;5.53;;;2.10;;
10410;SDS011;5251;52.112;8.606;2023-12-20T02:07:36;4.60;;;2.10;;
10410;SDS011;5251;52.112;8.606;2023-12-20T02:10:02;5.25;;;2.00;;
10410;SDS011;5251;52.112;8.606;2023-12-20T02:12:29;6.38;;;1.90;;
10410;SDS011;5251;52.112;8.606;2023-12-20T02:14:55;7.65;;;2.88;;
10410;SDS011;5251;52.112;8.606;2023-12-20T02:17:21;4.63;;;2.20;;
10410;SDS011;5251;52.112;8.606;2023-12-20T02:19:47;6.20;;;2.33;;
10410;SDS011;5251;52.112;8.606;2023-12-20T02:22:13;7.50;;;2.28;;
10410;SDS011;5251;52.112;8.606;2023-12-20T02:24:39;3.72;;;2.05;;
10410;SDS011;5251;52.112;8.606;2023-12-20T02:27:05;5.25;;;2.10;;
10410;SDS011;5251;52.112;8.606;2023-12-20T02:29:32;5.40;;;2.00;;
10410;SDS011;5251;52.112;8.606;2023-12-20T02:31:58;5.90;;;2.53;;
10410;SDS011;5251;52.112;8.606;2023-12-20T02:34:24;4.32;;;2.20;;
10410;SDS011;5251;52.112;8.606;2023-12-20T02:36:49;7.90;;;2.33;;
10410;SDS011;5251;52.112;8.606;2023-12-20T02:39:15;6.47;;;2.63;;
10410;SDS011;5251;52.112;8.606;2023-12-20T02:41:41;5.30;;;2.28;;
10410;SDS011;5251;52.112;8.606;2023-12-20T02:44:06;7.65;;;2.65;;
10410;SDS011;5251;52.112;8.606;2023-12-20T02:46:32;5.85;;;2.38;;
10410;SDS011;5251;52.112;8.606;2023-12-20T02:48:57;5.07;;;2.28;;
10410;SDS011;5251;52.112;8.606;2023-12-20T02:51:23;8.55;;;2.28;;
10410;SDS011;5251;52.112;8.606;2023-12-20T02:53:49;6.55;;;2.35;;
10410;SDS011;5251;52.112;8.606;2023-12-20T02:56:14;5.85;;;2.30;;
10410;SDS011;5251;52.112;8.606;2023-12-20T02:58:40;6.70;;;2.17;;
10410;SDS011;5251;52.112;8.606;2023-12-20T03:01:05;6.78;;;2.55;;
10410;SDS011;5251;52.112;8.606;2023-12-20T03:03:31;8.13;;;2.70;;
10410;SDS011;5251;52.112;8.606;2023-12-20T03:05:57;6.70;;;2.85;;
10410;SDS011;5251;52.112;8.606;2023-12-20T03:08:23;8.95;;;2.80;;
10410;SDS011;5251;52.112;8.606;2023-12-20T03:10:48;9.13;;;2.95;;
10410;SDS011;5251;52.112;8.606;2023-12-20T03:13:14;10.82;;;3.22;;
10410;SDS011;5251;52.112;8.606;2023-12-20T03:15:40;7.68;;;3.13;;
10410;SDS011;5251;52.112;8.606;2023-12-20T03:18:05;12.38;;;3.42;;
10410;SDS011;5251;52.112;8.606;2023-12-20T03:20:31;8.10;;;3.05;;
10410;SDS011;5251;52.112;8.606;2023-12-20T03:22:59;7.47;;;2.78;;
10410;SDS011;5251;52.112;8.606;2023-12-20T03:25:25;8.43;;;2.97;;
10410;SDS011;5251;52.112;8.606;2023-12-20T03:27:51;6.40;;;3.38;;
10410;SDS011;5251;52.112;8.606;2023-12-20T03:30:17;8.90;;;2.90;;
10410;SDS011;5251;52.112;8.606;2023-12-20T03:32:43;9.45;;;3.50;;
10410;SDS011;5251;52.112;8.606;2023-12-20T03:35:09;6.55;;;3.45;;
10410;SDS011;5251;52.112;8.606;2023-12-20T03:37:35;5.95;;;3.38;;
10410;SDS011;5251;52.112;8.606;2023-12-20T03:40:01;9.70;;;3.58;;
10410;SDS011;5251;52.112;8.606;2023-12-20T03:42:27;6.65;;;3.13;;
10410;SDS011;5251;52.112;8.606;2023-12-20T03:44:52;11.07;;;4.03;;
10410;SDS011;5251;52.112;8.606;2023-12-20T03:47:18;9.73;;;3.92;;
10410;SDS011;5251;52.112;8.606;2023-12-20T03:49:43;9.63;;;3.58;;
10410;SDS011;5251;52.112;8.606;2023-12-20T03:52:09;8.73;;;3.60;;
10410;SDS011;5251;52.112;8.606;2023-12-20T03:54:35;7.95;;;3.63;;
10410;SDS011;5251;52.112;8.606;2023-12-20T03:57:01;13.32;;;3.90;;
10410;SDS011;5251;52.112;8.606;2023-12-20T03:59:26;8.23;;;3.72;;
10410;SDS011;5251;52.112;8.606;2023-12-20T04:01:52;12.52;;;4.03;;
10410;SDS011;5251;52.112;8.606;2023-12-20T04:04:18;10.32;;;4.00;;
10410;SDS011;5251;52.112;8.606;2023-12-20T04:06:44;11.70;;;3.90;;
10410;SDS011;5251;52.112;8.606;2023-12-20T04:09:09;10.88;;;4.35;;
10410;SDS011;5251;52.112;8.606;2023-12-20T04:11:36;9.88;;;4.15;;
10410;SDS011;5251;52.112;8.606;2023-12-20T04:14:01;10.65;;;4.53;;
10410;SDS011;5251;52.112;8.606;2023-12-20T04:16:27;9.38;;;3.90;;
10410;SDS011;5251;52.112;8.606;2023-12-20T04:18:53;12.27;;;4.55;;
10410;SDS011;5251;52.112;8.606;2023-12-20T04:21:18;5.95;;;3.63;;
10410;SDS011;5251;52.112;8.606;2023-12-20T04:23:44;9.32;;;4.20;;
10410;SDS011;5251;52.112;8.606;2023-12-20T04:26:10;11.13;;;3.75;;
10410;SDS011;5251;52.112;8.606;2023-12-20T04:28:35;8.75;;;4.07;;
10410;SDS011;5251;52.112;8.606;2023-12-20T04:31:01;9.95;;;4.15;;
10410;SDS011;5251;52.112;8.606;2023-12-20T04:33:27;11.70;;;4.47;;
10410;SDS011;5251;52.112;8.606;2023-12-20T04:35:52;10.13;;;5.20;;
10410;SDS011;5251;52.112;8.606;2023-12-20T04:38:18;8.00;;;4.15;;
10410;SDS011;5251;52.112;8.606;2023-12-20T04:40:44;13.52;;;4.78;;
10410;SDS011;5251;52.112;8.606;2023-12-20T04:43:09;11.20;;;4.13;;
10410;SDS011;5251;52.112;8.606;2023-12-20T04:45:35;9.93;;;4.05;;
10410;SDS011;5251;52.112;8.606;2023-12-20T04:48:01;10.43;;;3.95;;
10410;SDS011;5251;52.112;8.606;2023-12-20T04:50:27;12.18;;;4.30;;
10410;SDS011;5251;52.112;8.606;2023-12-20T04:52:53;10.10;;;3.90;;
10410;SDS011;5251;52.112;8.606;2023-12-20T04:55:18;12.27;;;4.00;;
10410;SDS011;5251;52.112;8.606;2023-12-20T04:57:45;11.18;;;4.22;;
10410;SDS011;5251;52.112;8.606;2023-12-20T05:00:10;12.27;;;4.50;;
10410;SDS011;5251;52.112;8.606;2023-12-20T05:02:37;10.85;;;4.30;;
10410;SDS011;5251;52.112;8.606;2023-12-20T05:05:03;10.35;;;3.50;;
10410;SDS011;5251;52.112;8.606;2023-12-20T05:07:28;12.63;;;4.30;;
10410;SDS011;5251;52.112;8.606;2023-12-20T05:09:54;9.15;;;3.97;;
10410;SDS011;5251;52.112;8.606;2023-12-20T05:12:20;11.00;;;3.75;;
10410;SDS011;5251;52.112;8.606;2023-12-20T05:14:46;14.10;;;4.07;;
10410;SDS011;5251;52.112;8.606;2023-12-20T05:17:11;12.45;;;4.00;;
10410;SDS011;5251;52.112;8.606;2023-12-20T05:19:37;8.25;;;3.47;;
10410;SDS011;5251;52.112;8.606;2023-12-20T05:22:02;14.32;;;4.30;;
10410;SDS011;5251;52.112;8.606;2023-12-20T05:24:28;9.57;;;3.83;;
10410;SDS011;5251;52.112;8.606;2023-12-20T05:26:54;11.90;;;3.65;;
10410;SDS011;5251;52.112;8.606;2023-12-20T05:29:20;12.75;;;3.97;;
10410;SDS011;5251;52.112;8.606;2023-12-20T05:31:45;14.15;;;4.13;;
10410;SDS011;5251;52.112;8.606;2023-12-20T05:34:11;10.35;;;4.05;;
10410;SDS011;5251;52.112;8.606;2023-12-20T05:36:37;11.13;;;4.47;;
10410;SDS011;5251;52.112;8.606;2023-12-20T05:39:03;12.18;;;5.18;;
10410;SDS011;5251;52.112;8.606;2023-12-20T05:41:30;12.35;;;4.18;;
10410;SDS011;5251;52.112;8.606;2023-12-20T05:43:56;7.25;;;3.63;;
10410;SDS011;5251;52.112;8.606;2023-12-20T05:46:23;11.98;;;3.63;;
10410;SDS011;5251;52.112;8.606;2023-12-20T05:48:49;11.20;;;4.15;;
10410;SDS011;5251;52.112;8.606;2023-12-20T05:51:16;10.50;;;4.18;;
10410;SDS011;5251;52.112;8.606;2023-12-20T05:53:42;9.43;;;3.80;;
10410;SDS011;5251;52.112;8.606;2023-12-20T05:56:09;11.18;;;4.10;;
10410;SDS011;5251;52.112;8.606;2023-12-20T05:58:35;12.85;;;3.90;;
10410;SDS011;5251;52.112;8.606;2023-12-20T06:01:03;13.13;;;4.13;;
10410;SDS011;5251;52.112;8.606;2023-12-20T06:03:29;12.40;;;4.15;;
10410;SDS011;5251;52.112;8.606;2023-12-20T06:05:55;14.30;;;4.80;;
10410;SDS011;5251;52.112;8.606;2023-12-20T06:08:20;10.98;;;3.58;;
10410;SDS011;5251;52.112;8.606;2023-12-20T06:10:46;10.90;;;4.03;;
10410;SDS011;5251;52.112;8.606;2023-12-20T06:13:12;12.20;;;4.15;;
10410;SDS011;5251;52.112;8.606;2023-12-20T06:15:38;11.80;;;4.15;;
10410;SDS011;5251;52.112;8.606;2023-12-20T06:18:05;10.63;;;3.80;;
10410;SDS011;5251;52.112;8.606;2023-12-20T06:20:31;19.25;;;4.57;;
10410;SDS011;5251;52.112;8.606;2023-12-20T06:22:58;11.20;;;4.22;;
10410;SDS011;5251;52.112;8.606;2023-12-20T06:25:23;11.70;;;4.40;;
10410;SDS011;5251;52.112;8.606;2023-12-20T06:27:49;11.10;;;3.88;;
10410;SDS011;5251;52.112;8.606;2023-12-20T06:30:15;9.18;;;3.33;;
10410;SDS011;5251;52.112;8.606;2023-12-20T06:32:41;14.38;;;4.75;;
10410;SDS011;5251;52.112;8.606;2023-12-20T06:35:08;10.63;;;4.30;;
10410;SDS011;5251;52.112;8.606;2023-12-20T06:37:34;10.88;;;4.15;;
10410;SDS011;5251;52.112;8.606;2023-12-20T06:40:00;13.38;;;4.63;;
10410;SDS011;5251;52.112;8.606;2023-12-20T06:42:26;11.23;;;3.72;;
10410;SDS011;5251;52.112;8.606;2023-12-20T06:44:52;15.63;;;5.25;;
10410;SDS011;5251;52.112;8.606;2023-12-20T06:47:17;12.38;;;4.70;;
10410;SDS011;5251;52.112;8.606;2023-12-20T06:49:43;14.02;;;4.60;;
10410;SDS011;5251;52.112;8.606;2023-12-20T06:52:08;11.43;;;4.25;;
10410;SDS011;5251;52.112;8.606;2023-12-20T06:54:34;11.77;;;4.78;;
10410;SDS011;5251;52.112;8.606;2023-12-20T06:57:00;11.70;;;4.45;;
10410;SDS011;5251;52.112;8.606;2023-12-20T06:59:27;17.13;;;5.18;;
10410;SDS011;5251;52.112;8.606;2023-12-20T07:01:53;10.93;;;4.18;;
10410;SDS011;5251;52.112;8.606;2023-12-20T07:04:19;11.90;;;5.05;;
10410;SDS011;5251;52.112;8.606;2023-12-20T07:06:46;12.95;;;4.75;;
10410;SDS011;5251;52.112;8.606;2023-12-20T07:09:13;12.20;;;4.60;;
10410;SDS011;5251;52.112;8.606;2023-12-20T07:11:38;10.25;;;3.97;;
10410;SDS011;5251;52.112;8.606;2023-12-20T07:14:04;10.98;;;4.45;;
10410;SDS011;5251;52.112;8.606;2023-12-20T07:16:30;9.13;;;4.80;;
10410;SDS011;5251;52.112;8.606;2023-12-20T07:18:55;12.68;;;4.50;;
10410;SDS011;5251;52.112;8.606;2023-12-20T07:21:22;12.82;;;4.68;;
10410;SDS011;5251;52.112;8.606;2023-12-20T07:23:47;10.13;;;4.60;;
10410;SDS011;5251;52.112;8.606;2023-12-20T07:26:13;14.95;;;4.60;;
10410;SDS011;5251;52.112;8.606;2023-12-20T07:28:39;11.43;;;4.50;;
10410;SDS011;5251;52.112;8.606;2023-12-20T07:31:05;11.63;;;4.25;;
10410;SDS011;5251;52.112;8.606;2023-12-20T07:33:31;17.77;;;4.95;;
10410;SDS011;5251;52.112;8.606;2023-12-20T07:35:57;13.20;;;4.82;;
10410;SDS011;5251;52.112;8.606;2023-12-20T07:38:24;12.95;;;4.80;;
10410;SDS011;5251;52.112;8.606;2023-12-20T07:40:50;13.30;;;3.90;;
10410;SDS011;5251;52.112;8.606;2023-12-20T07:43:15;11.93;;;4.38;;
10410;SDS011;5251;52.112;8.606;2023-12-20T07:45:41;13.02;;;3.75;;
10410;SDS011;5251;52.112;8.606;2023-12-20T07:48:07;8.77;;;3.63;;
10410;SDS011;5251;52.112;8.606;2023-12-20T07:50:33;10.90;;;3.75;;
10410;SDS011;5251;52.112;8.606;2023-12-20T07:52:59;9.65;;;3.92;;
10410;SDS011;5251;52.112;8.606;2023-12-20T07:55:25;14.38;;;4.22;;
10410;SDS011;5251;52.112;8.606;2023-12-20T07:57:51;11.52;;;3.83;;
10410;SDS011;5251;52.112;8.606;2023-12-20T08:00:17;11.60;;;3.67;;
10410;SDS011;5251;52.112;8.606;2023-12-20T08:02:43;9.10;;;3.83;;
10410;SDS011;5251;52.112;8.606;2023-12-20T08:05:09;9.20;;;3.40;;
10410;SDS011;5251;52.112;8.606;2023-12-20T08:07:34;12.30;;;3.97;;
10410;SDS011;5251;52.112;8.606;2023-12-20T08:10:00;10.55;;;3.88;;
10410;SDS011;5251;52.112;8.606;2023-12-20T08:12:26;13.00;;;4.38;;
10410;SDS011;5251;52.112;8.606;2023-12-20T08:14:52;12.45;;;4.13;;
10410;SDS011;5251;52.112;8.606;2023-12-20T08:17:19;13.50;;;3.50;;
10410;SDS011;5251;52.112;8.606;2023-12-20T08:19:44;7.45;;;3.60;;
10410;SDS011;5251;52.112;8.606;2023-12-20T08:22:10;12.98;;;4.88;;
10410;SDS011;5251;52.112;8.606;2023-12-20T08:24:36;10.77;;;4.20;;
10410;SDS011;5251;52.112;8.606;2023-12-20T08:27:02;10.48;;;4.00;;
10410;SDS011;5251;52.112;8.606;2023-12-20T08:29:28;11.35;;;4.25;;
10410;SDS011;5251;52.112;8.606;2023-12-20T08:31:54;8.98;;;3.15;;
10410;SDS011;5251;52.112;8.606;2023-12-20T08:34:20;8.50;;;3.55;;
10410;SDS011;5251;52.112;8.606;2023-12-20T08:36:46;10.80;;;3.60;;
10410;SDS011;5251;52.112;8.606;2023-12-20T08:39:12;12.57;;;4.00;;
10410;SDS011;5251;52.112;8.606;2023-12-20T08:41:37;9.93;;;3.47;;
10410;SDS011;5251;52.112;8.606;2023-12-20T08:44:03;11.20;;;3.60;;
10410;SDS011;5251;52.112;8.606;2023-12-20T08:46:29;10.07;;;3.67;;
10410;SDS011;5251;52.112;8.606;2023-12-20T08:48:54;12.48;;;4.28;;
10410;SDS011;5251;52.112;8.606;2023-12-20T08:51:20;10.65;;;3.97;;
10410;SDS011;5251;52.112;8.606;2023-12-20T08:53:47;9.02;;;3.05;;
10410;SDS011;5251;52.112;8.606;2023-12-20T08:56:14;8.15;;;3.58;;
10410;SDS011;5251;52.112;8.606;2023-12-20T08:58:40;8.65;;;3.88;;
10410;SDS011;5251;52.112;8.606;2023-12-20T09:01:05;9.32;;;3.58;;
10410;SDS011;5251;52.112;8.606;2023-12-20T09:03:32;10.15;;;3.83;;
10410;SDS011;5251;52.112;8.606;2023-12-20T09:05:58;8.55;;;4.00;;
10410;SDS011;5251;52.112;8.606;2023-12-20T09:08:23;10.25;;;4.10;;
10410;SDS011;5251;52.112;8.606;2023-12-20T09:10:49;13.70;;;3.70;;
10410;SDS011;5251;52.112;8.606;2023-12-20T09:13:15;9.48;;;3.28;;
10410;SDS011;5251;52.112;8.606;2023-12-20T09:15:40;12.80;;;3.13;;
10410;SDS011;5251;52.112;8.606;2023-12-20T09:18:06;9.27;;;3.70;;
10410;SDS011;5251;52.112;8.606;2023-12-20T09:20:31;8.55;;;3.60;;
10410;SDS011;5251;52.112;8.606;2023-12-20T09:22:57;15.18;;;4.72;;
10410;SDS011;5251;52.112;8.606;2023-12-20T09:25:23;10.50;;;4.35;;
10410;SDS011;5251;52.112;8.606;2023-12-20T09:27:50;9.43;;;3.55;;
10410;SDS011;5251;52.112;8.606;2023-12-20T09:30:17;7.60;;;3.20;;
10410;SDS011;5251;52.112;8.606;2023-12-20T09:32:43;12.02;;;3.92;;
10410;SDS011;5251;52.112;8.606;2023-12-20T09:35:09;9.93;;;3.70;;
10410;SDS011;5251;52.112;8.606;2023-12-20T09:37:35;7.78;;;4.07;;
10410;SDS011;5251;52.112;8.606;2023-12-20T09:40:01;12.00;;;4.15;;
10410;SDS011;5251;52.112;8.606;2023-12-20T09:42:50;12.90;;;4.30;;
10410;SDS011;5251;52.112;8.606;2023-12-20T09:45:15;12.98;;;4.82;;
10410;SDS011;5251;52.112;8.606;2023-12-20T09:47:44;8.75;;;3.80;;
10410;SDS011;5251;52.112;8.606;2023-12-20T09:50:10;9.57;;;4.00;;
10410;SDS011;5251;52.112;8.606;2023-12-20T09:52:37;11.27;;;4.30;;
10410;SDS011;5251;52.112;8.606;2023-12-20T09:55:04;11.77;;;4.00;;
10410;SDS011;5251;52.112;8.606;2023-12-20T09:57:32;11.95;;;4.43;;
10410;SDS011;5251;52.112;8.606;2023-12-20T09:59:58;10.70;;;4.03;;
10410;SDS011;5251;52.112;8.606;2023-12-20T10:02:24;8.90;;;3.33;;
10410;SDS011;5251;52.112;8.606;2023-12-20T10:04:54;14.73;;;4.55;;
10410;SDS011;5251;52.112;8.606;2023-12-20T10:07:20;15.77;;;5.00;;
10410;SDS011;5251;52.112;8.606;2023-12-20T10:09:47;8.70;;;4.05;;
10410;SDS011;5251;52.112;8.606;2023-12-20T10:12:13;8.88;;;3.83;;
10410;SDS011;5251;52.112;8.606;2023-12-20T10:14:38;10.10;;;4.40;;
10410;SDS011;5251;52.112;8.606;2023-12-20T10:17:05;11.73;;;3.95;;
10410;SDS011;5251;52.112;8.606;2023-12-20T10:19:31;12.48;;;4.93;;
10410;SDS011;5251;52.112;8.606;2023-12-20T10:22:04;9.48;;;4.07;;
10410;SDS011;5251;52.112;8.606;2023-12-20T10:24:30;11.90;;;4.03;;
10410;SDS011;5251;52.112;8.606;2023-12-20T10:27:05;12.35;;;3.88;;
10410;SDS011;5251;52.112;8.606;2023-12-20T10:29:35;12.07;;;4.40;;
10410;SDS011;5251;52.112;8.606;2023-12-20T10:34:51;14.05;;;4.82;;
10410;SDS011;5251;52.112;8.606;2023-12-20T10:37:17;12.77;;;4.18;;
10410;SDS011;5251;52.112;8.606;2023-12-20T10:39:43;13.73;;;4.18;;
10410;SDS011;5251;52.112;8.606;2023-12-20T10:42:12;12.85;;;4.50;;
10410;SDS011;5251;52.112;8.606;2023-12-20T10:44:38;13.63;;;4.22;;
10410;SDS011;5251;52.112;8.606;2023-12-20T10:47:04;10.18;;;4.28;;
10410;SDS011;5251;52.112;8.606;2023-12-20T10:49:31;10.55;;;3.92;;
10410;SDS011;5251;52.112;8.606;2023-12-20T10:52:01;9.10;;;3.47;;
10410;SDS011;5251;52.112;8.606;2023-12-20T10:54:29;10.27;;;4.07;;
10410;SDS011;5251;52.112;8.606;2023-12-20T10:56:54;9.85;;;3.63;;
10410;SDS011;5251;52.112;8.606;2023-12-20T10:59:22;12.63;;;4.00;;
10410;SDS011;5251;52.112;8.606;2023-12-20T11:01:49;10.32;;;3.17;;
10410;SDS011;5251;52.112;8.606;2023-12-20T11:04:18;7.50;;;2.63;;
10410;SDS011;5251;52.112;8.606;2023-12-20T11:06:53;8.35;;;2.78;;
10410;SDS011;5251;52.112;8.606;2023-12-20T11:09:25;5.95;;;2.58;;
10410;SDS011;5251;52.112;8.606;2023-12-20T11:14:53;6.28;;;2.58;;
10410;SDS011;5251;52.112;8.606;2023-12-20T11:17:22;5.60;;;2.80;;
10410;SDS011;5251;52.112;8.606;2023-12-20T11:22:17;7.25;;;2.92;;
10410;SDS011;5251;52.112;8.606;2023-12-20T11:24:45;6.63;;;2.80;;
10410;SDS011;5251;52.112;8.606;2023-12-20T11:27:12;9.10;;;3.50;;
10410;SDS011;5251;52.112;8.606;2023-12-20T11:29:38;7.22;;;2.50;;
10410;SDS011;5251;52.112;8.606;2023-12-20T11:34:50;8.15;;;2.70;;
10410;SDS011;5251;52.112;8.606;2023-12-20T11:37:16;9.18;;;2.85;;
10410;SDS011;5251;52.112;8.606;2023-12-20T11:39:44;8.65;;;2.90;;
10410;SDS011;5251;52.112;8.606;2023-12-20T11:42:10;6.15;;;2.28;;
10410;SDS011;5251;52.112;8.606;2023-12-20T11:44:36;5.57;;;2.38;;
10410;SDS011;5251;52.112;8.606;2023-12-20T11:47:02;7.88;;;2.55;;
10410;SDS011;5251;52.112;8.606;2023-12-20T11:49:28;7.60;;;2.83;;
10410;SDS011;5251;52.112;8.606;2023-12-20T11:51:55;10.13;;;2.78;;
10410;SDS011;5251;52.112;8.606;2023-12-20T11:54:21;9.43;;;2.70;;
10410;SDS011;5251;52.112;8.606;2023-12-20T11:56:47;7.35;;;2.35;;
10410;SDS011;5251;52.112;8.606;2023-12-20T11:59:13;6.30;;;2.67;;
10410;SDS011;5251;52.112;8.606;2023-12-20T12:01:40;5.22;;;2.22;;
10410;SDS011;5251;52.112;8.606;2023-12-20T12:04:12;8.38;;;2.75;;
10410;SDS011;5251;52.112;8.606;2023-12-20T12:06:39;9.75;;;2.78;;
10410;SDS011;5251;52.112;8.606;2023-12-20T12:09:04;7.68;;;2.50;;
10410;SDS011;5251;52.112;8.606;2023-12-20T12:11:30;8.65;;;2.80;;
10410;SDS011;5251;52.112;8.606;2023-12-20T12:13:56;2.83;;;2.00;;
10410;SDS011;5251;52.112;8.606;2023-12-20T12:16:21;8.93;;;2.78;;
10410;SDS011;5251;52.112;8.606;2023-12-20T12:18:54;6.20;;;2.25;;
10410;SDS011;5251;52.112;8.606;2023-12-20T12:21:21;5.10;;;2.42;;
10410;SDS011;5251;52.112;8.606;2023-12-20T12:23:47;6.63;;;2.53;;
10410;SDS011;5251;52.112;8.606;2023-12-20T12:26:12;6.00;;;2.10;;
10410;SDS011;5251;52.112;8.606;2023-12-20T12:28:41;7.30;;;2.10;;
10410;SDS011;5251;52.112;8.606;2023-12-20T12:31:07;7.53;;;2.50;;
10410;SDS011;5251;52.112;8.606;2023-12-20T12:33:34;6.07;;;2.10;;
10410;SDS011;5251;52.112;8.606;2023-12-20T12:36:02;6.88;;;2.30;;
10410;SDS011;5251;52.112;8.606;2023-12-20T12:38:30;8.55;;;2.92;;
10410;SDS011;5251;52.112;8.606;2023-12-20T12:40:56;9.13;;;2.55;;
10410;SDS011;5251;52.112;8.606;2023-12-20T12:43:22;6.75;;;2.25;;
10410;SDS011;5251;52.112;8.606;2023-12-20T12:45:48;5.82;;;2.40;;
10410;SDS011;5251;52.112;8.606;2023-12-20T12:48:14;8.05;;;2.67;;
10410;SDS011;5251;52.112;8.606;2023-12-20T12:50:39;5.28;;;2.20;;
10410;SDS011;5251;52.112;8.606;2023-12-20T12:53:05;4.50;;;1.65;;
10410;SDS011;5251;52.112;8.606;2023-12-20T12:55:31;3.35;;;1.30;;
10410;SDS011;5251;52.112;8.606;2023-12-20T12:57:56;3.63;;;1.25;;
10410;SDS011;5251;52.112;8.606;2023-12-20T13:00:22;3.33;;;1.20;;
10410;SDS011;5251;52.112;8.606;2023-12-20T13:02:49;4.20;;;1.10;;
10410;SDS011;5251;52.112;8.606;2023-12-20T13:05:14;4.53;;;1.50;;
10410;SDS011;5251;52.112;8.606;2023-12-20T13:07:40;3.53;;;1.10;;
10410;SDS011;5251;52.112;8.606;2023-12-20T13:10:06;4.53;;;1.30;;
10410;SDS011;5251;52.112;8.606;2023-12-20T13:12:32;4.25;;;1.33;;
10410;SDS011;5251;52.112;8.606;2023-12-20T13:14:57;4.88;;;1.30;;
10410;SDS011;5251;52.112;8.606;2023-12-20T13:17:23;4.43;;;1.10;;
10410;SDS011;5251;52.112;8.606;2023-12-20T13:19:49;4.82;;;1.63;;
10410;SDS011;5251;52.112;8.606;2023-12-20T13:22:14;4.28;;;1.35;;
10410;SDS011;5251;52.112;8.606;2023-12-20T13:24:41;3.25;;;1.13;;
10410;SDS011;5251;52.112;8.606;2023-12-20T13:27:09;2.13;;;1.15;;
10410;SDS011;5251;52.112;8.606;2023-12-20T13:29:35;3.20;;;1.30;;
10410;SDS011;5251;52.112;8.606;2023-12-20T13:32:00;4.05;;;1.30;;
10410;SDS011;5251;52.112;8.606;2023-12-20T13:34:28;6.03;;;1.40;;
10410;SDS011;5251;52.112;8.606;2023-12-20T13:36:54;3.50;;;1.35;;
10410;SDS011;5251;52.112;8.606;2023-12-20T13:39:19;4.63;;;1.30;;
10410;SDS011;5251;52.112;8.606;2023-12-20T13:41:46;5.65;;;1.10;;
10410;SDS011;5251;52.112;8.606;2023-12-20T13:44:12;2.55;;;1.20;;
10410;SDS011;5251;52.112;8.606;2023-12-20T13:46:38;5.68;;;1.23;;
10410;SDS011;5251;52.112;8.606;2023-12-20T13:49:05;2.22;;;1.08;;
10410;SDS011;5251;52.112;8.606;2023-12-20T13:51:30;3.10;;;1.20;;
10410;SDS011;5251;52.112;8.606;2023-12-20T13:53:56;3.70;;;1.42;;
10410;SDS011;5251;52.112;8.606;2023-12-20T13:56:22;4.95;;;1.20;;
10410;SDS011;5251;52.112;8.606;2023-12-20T13:58:48;5.25;;;1.83;;
10410;SDS011;5251;52.112;8.606;2023-12-20T14:01:15;5.20;;;1.35;;
10410;SDS011;5251;52.112;8.606;2023-12-20T14:03:41;4.05;;;1.27;;
10410;SDS011;5251;52.112;8.606;2023-12-20T14:06:06;4.70;;;1.45;;
10410;SDS011;5251;52.112;8.606;2023-12-20T14:08:32;4.80;;;1.42;;
10410;SDS011;5251;52.112;8.606;2023-12-20T14:10:58;7.00;;;1.75;;
10410;SDS011;5251;52.112;8.606;2023-12-20T14:13:23;4.88;;;1.35;;
10410;SDS011;5251;52.112;8.606;2023-12-20T14:15:49;7.43;;;2.17;;
10410;SDS011;5251;52.112;8.606;2023-12-20T14:18:15;6.55;;;2.28;;
10410;SDS011;5251;52.112;8.606;2023-12-20T14:20:41;5.35;;;1.45;;
10410;SDS011;5251;52.112;8.606;2023-12-20T14:23:08;3.67;;;1.55;;
10410;SDS011;5251;52.112;8.606;2023-12-20T14:25:37;4.43;;;1.50;;
10410;SDS011;5251;52.112;8.606;2023-12-20T14:28:05;6.60;;;1.98;;
10410;SDS011;5251;52.112;8.606;2023-12-20T14:30:31;6.20;;;1.77;;
10410;SDS011;5251;52.112;8.606;2023-12-20T14:32:57;4.95;;;1.58;;
10410;SDS011;5251;52.112;8.606;2023-12-20T14:35:23;4.10;;;1.42;;
10410;SDS011;5251;52.112;8.606;2023-12-20T14:37:49;4.07;;;1.63;;
10410;SDS011;5251;52.112;8.606;2023-12-20T14:40:15;5.55;;;1.52;;
10410;SDS011;5251;52.112;8.606;2023-12-20T14:42:44;5.05;;;1.40;;
10410;SDS011;5251;52.112;8.606;2023-12-20T14:45:10;7.20;;;2.13;;
10410;SDS011;5251;52.112;8.606;2023-12-20T14:47:38;4.97;;;1.70;;
10410;SDS011;5251;52.112;8.606;2023-12-20T14:50:04;4.18;;;1.75;;
10410;SDS011;5251;52.112;8.606;2023-12-20T14:52:31;6.03;;;1.85;;
10410;SDS011;5251;52.112;8.606;2023-12-20T14:54:58;2.88;;;1.50;;
10410;SDS011;5251;52.112;8.606;2023-12-20T14:57:24;4.70;;;1.52;;
10410;SDS011;5251;52.112;8.606;2023-12-20T14:59:51;4.75;;;1.45;;